KTYS/TYS METAR and TAF weather

Enter ICAO airport designator
Station Type Date Time Source
KTYS METAR 2022/08/13 10:53 UTC NOAA

KTYS 131053Z 05003KT 10SM BKN065 17/15 A3009 RMK AO2 SLP181 T01720150


Station Type Date Time Source
KTYS Decoded METAR 2022/08/13 10:53 UTC NOAA

MCGHEE TYSON AIRPORT, TN, United States (KTYS) 35-49N 083-59W 302M
Aug 13, 2022 - 06:53 AM EDT / 2022.08.13 1053 UTC
Wind: from the NE (050 degrees) at 3 MPH (3 KT):0
Visibility: 10 mile(s):0
Sky conditions: mostly cloudy
Temperature: 63.0 F (17.2 C)
Dew Point: 59.0 F (15.0 C)
Relative Humidity: 86%
Pressure (altimeter): 30.09 in. Hg (1018 hPa)
ob: KTYS 131053Z 05003KT 10SM BKN065 17/15 A3009 RMK AO2 SLP181 T01720150
cycle: 11

Station Type Date Time Source
KTYS TAF 2022/08/13 12:30 UTC NOAA

TAF KTYS 131127Z 1312/1412 03005KT P6SM BKN060
FM131800 VRB05KT P6SM SCT050 BKN250

Example: see airport list